sensor_id;sensor_type;location;lat;lon;timestamp;temperature;humidity
31819;DHT22;18384;48.860;9.188;2022-12-18T00:02:02;-3.20;98.30
31819;DHT22;18384;48.860;9.188;2022-12-18T00:04:28;-3.30;98.60
31819;DHT22;18384;48.860;9.188;2022-12-18T00:06:55;-3.30;98.30
31819;DHT22;18384;48.860;9.188;2022-12-18T00:09:21;-3.30;98.00
31819;DHT22;18384;48.860;9.188;2022-12-18T00:11:47;-2.50;98.30
31819;DHT22;18384;48.860;9.188;2022-12-18T00:14:14;-2.00;98.40
31819;DHT22;18384;48.860;9.188;2022-12-18T00:16:43;-1.60;98.30
31819;DHT22;18384;48.860;9.188;2022-12-18T00:19:10;-3.30;97.80
31819;DHT22;18384;48.860;9.188;2022-12-18T00:21:37;-3.30;97.90
31819;DHT22;18384;48.860;9.188;2022-12-18T00:24:06;-2.10;98.30
31819;DHT22;18384;48.860;9.188;2022-12-18T00:26:33;-3.30;98.10
31819;DHT22;18384;48.860;9.188;2022-12-18T00:29:03;-3.50;98.20
31819;DHT22;18384;48.860;9.188;2022-12-18T00:31:31;-3.50;98.30
31819;DHT22;18384;48.860;9.188;2022-12-18T00:33:58;-3.50;98.30
31819;DHT22;18384;48.860;9.188;2022-12-18T00:36:30;-3.50;98.00
31819;DHT22;18384;48.860;9.188;2022-12-18T00:39:00;-3.40;98.20
31819;DHT22;18384;48.860;9.188;2022-12-18T00:41:27;-3.40;98.00
31819;DHT22;18384;48.860;9.188;2022-12-18T00:44:14;-3.50;97.90
31819;DHT22;18384;48.860;9.188;2022-12-18T00:46:42;-3.50;98.00
31819;DHT22;18384;48.860;9.188;2022-12-18T00:49:09;-3.50;97.70
31819;DHT22;18384;48.860;9.188;2022-12-18T00:51:38;-3.50;97.60
31819;DHT22;18384;48.860;9.188;2022-12-18T00:54:04;-3.60;97.60
31819;DHT22;18384;48.860;9.188;2022-12-18T00:56:30;-3.50;97.70
31819;DHT22;18384;48.860;9.188;2022-12-18T00:58:56;-3.60;97.60
31819;DHT22;18384;48.860;9.188;2022-12-18T01:01:23;-3.60;97.80
31819;DHT22;18384;48.860;9.188;2022-12-18T01:03:49;-3.70;97.80
31819;DHT22;18384;48.860;9.188;2022-12-18T01:06:15;-3.70;98.20
31819;DHT22;18384;48.860;9.188;2022-12-18T01:08:41;-3.90;98.50
31819;DHT22;18384;48.860;9.188;2022-12-18T01:11:18;-3.90;98.70
31819;DHT22;18384;48.860;9.188;2022-12-18T01:13:46;-3.90;99.10
31819;DHT22;18384;48.860;9.188;2022-12-18T01:16:13;-4.00;99.10
31819;DHT22;18384;48.860;9.188;2022-12-18T01:18:40;-3.90;99.30
31819;DHT22;18384;48.860;9.188;2022-12-18T01:21:11;-3.80;99.10
31819;DHT22;18384;48.860;9.188;2022-12-18T01:23:39;-3.80;98.80
31819;DHT22;18384;48.860;9.188;2022-12-18T01:26:06;-3.80;98.80
31819;DHT22;18384;48.860;9.188;2022-12-18T01:28:33;-3.70;98.90
31819;DHT22;18384;48.860;9.188;2022-12-18T01:31:09;-3.70;98.60
31819;DHT22;18384;48.860;9.188;2022-12-18T01:33:43;-2.40;99.00
31819;DHT22;18384;48.860;9.188;2022-12-18T01:36:15;-3.70;98.60
31819;DHT22;18384;48.860;9.188;2022-12-18T01:38:45;-3.70;98.70
31819;DHT22;18384;48.860;9.188;2022-12-18T01:41:17;-3.70;98.60
31819;DHT22;18384;48.860;9.188;2022-12-18T01:43:56;-2.80;98.90
31819;DHT22;18384;48.860;9.188;2022-12-18T01:46:25;-3.70;98.70
31819;DHT22;18384;48.860;9.188;2022-12-18T01:48:58;-3.70;98.60
31819;DHT22;18384;48.860;9.188;2022-12-18T01:51:27;-3.70;98.70
31819;DHT22;18384;48.860;9.188;2022-12-18T01:53:56;-3.70;98.50
31819;DHT22;18384;48.860;9.188;2022-12-18T01:56:23;-3.70;98.50
31819;DHT22;18384;48.860;9.188;2022-12-18T01:58:54;-3.70;98.30
31819;DHT22;18384;48.860;9.188;2022-12-18T02:01:25;-3.70;98.40
31819;DHT22;18384;48.860;9.188;2022-12-18T02:03:52;-3.70;98.40
31819;DHT22;18384;48.860;9.188;2022-12-18T02:06:33;-3.70;98.40
31819;DHT22;18384;48.860;9.188;2022-12-18T02:09:10;-3.70;98.50
31819;DHT22;18384;48.860;9.188;2022-12-18T02:14:18;-3.70;98.40
31819;DHT22;18384;48.860;9.188;2022-12-18T02:21:52;-3.70;98.60
31819;DHT22;18384;48.860;9.188;2022-12-18T02:26:07;-3.60;98.50
31819;DHT22;18384;48.860;9.188;2022-12-18T02:28:54;-3.70;98.90
31819;DHT22;18384;48.860;9.188;2022-12-18T02:31:28;-3.60;98.80
31819;DHT22;18384;48.860;9.188;2022-12-18T02:33:59;-3.60;98.80
31819;DHT22;18384;48.860;9.188;2022-12-18T02:36:28;-3.60;99.00
31819;DHT22;18384;48.860;9.188;2022-12-18T02:38:56;-3.80;99.10
31819;DHT22;18384;48.860;9.188;2022-12-18T02:41:23;-3.70;99.00
31819;DHT22;18384;48.860;9.188;2022-12-18T02:43:57;-3.70;99.00
31819;DHT22;18384;48.860;9.188;2022-12-18T02:46:51;-3.30;98.90
31819;DHT22;18384;48.860;9.188;2022-12-18T02:53:48;-3.60;98.70
31819;DHT22;18384;48.860;9.188;2022-12-18T02:59:19;-3.50;98.70
31819;DHT22;18384;48.860;9.188;2022-12-18T03:02:01;-3.50;98.80
31819;DHT22;18384;48.860;9.188;2022-12-18T03:04:48;-3.50;98.70
31819;DHT22;18384;48.860;9.188;2022-12-18T03:08:49;-3.50;98.70
31819;DHT22;18384;48.860;9.188;2022-12-18T03:11:18;-3.50;98.50
31819;DHT22;18384;48.860;9.188;2022-12-18T03:14:49;-3.50;98.90
31819;DHT22;18384;48.860;9.188;2022-12-18T03:17:19;-2.90;98.80
31819;DHT22;18384;48.860;9.188;2022-12-18T03:19:49;-3.50;98.70
31819;DHT22;18384;48.860;9.188;2022-12-18T03:22:18;-3.50;98.70
31819;DHT22;18384;48.860;9.188;2022-12-18T03:24:46;-3.60;98.50
31819;DHT22;18384;48.860;9.188;2022-12-18T03:27:17;-3.50;98.80
31819;DHT22;18384;48.860;9.188;2022-12-18T03:29:48;-3.40;98.80
31819;DHT22;18384;48.860;9.188;2022-12-18T03:32:31;-3.40;98.60
31819;DHT22;18384;48.860;9.188;2022-12-18T03:35:04;-3.40;98.70
31819;DHT22;18384;48.860;9.188;2022-12-18T03:37:32;-3.50;98.50
31819;DHT22;18384;48.860;9.188;2022-12-18T03:39:58;-3.40;98.70
31819;DHT22;18384;48.860;9.188;2022-12-18T03:42:37;-1.50;99.00
31819;DHT22;18384;48.860;9.188;2022-12-18T03:45:41;-2.10;98.80
31819;DHT22;18384;48.860;9.188;2022-12-18T03:48:26;-3.50;98.40
31819;DHT22;18384;48.860;9.188;2022-12-18T03:54:02;-3.50;98.50
31819;DHT22;18384;48.860;9.188;2022-12-18T03:56:38;-3.50;98.50
31819;DHT22;18384;48.860;9.188;2022-12-18T03:59:13;-3.50;98.70
31819;DHT22;18384;48.860;9.188;2022-12-18T04:01:45;-3.60;98.70
31819;DHT22;18384;48.860;9.188;2022-12-18T04:04:15;-1.50;99.40
31819;DHT22;18384;48.860;9.188;2022-12-18T04:06:44;-3.60;98.70
31819;DHT22;18384;48.860;9.188;2022-12-18T04:09:12;-2.70;99.00
31819;DHT22;18384;48.860;9.188;2022-12-18T04:11:43;-3.60;98.80
31819;DHT22;18384;48.860;9.188;2022-12-18T04:14:12;-3.60;98.80
31819;DHT22;18384;48.860;9.188;2022-12-18T04:16:38;-3.60;98.80
31819;DHT22;18384;48.860;9.188;2022-12-18T04:19:04;-3.60;98.80
31819;DHT22;18384;48.860;9.188;2022-12-18T04:21:30;-2.30;99.00
31819;DHT22;18384;48.860;9.188;2022-12-18T04:23:56;-3.60;98.60
31819;DHT22;18384;48.860;9.188;2022-12-18T04:26:22;-3.60;98.70
31819;DHT22;18384;48.860;9.188;2022-12-18T04:28:49;-3.60;98.60
31819;DHT22;18384;48.860;9.188;2022-12-18T04:31:15;-3.70;98.70
31819;DHT22;18384;48.860;9.188;2022-12-18T04:33:41;-3.70;98.70
31819;DHT22;18384;48.860;9.188;2022-12-18T04:36:07;-3.70;98.70
31819;DHT22;18384;48.860;9.188;2022-12-18T04:38:33;-3.70;98.70
31819;DHT22;18384;48.860;9.188;2022-12-18T04:40:59;-2.80;98.80
31819;DHT22;18384;48.860;9.188;2022-12-18T04:43:25;-1.60;99.10
31819;DHT22;18384;48.860;9.188;2022-12-18T04:45:51;-3.70;98.60
31819;DHT22;18384;48.860;9.188;2022-12-18T04:48:17;-2.30;98.80
31819;DHT22;18384;48.860;9.188;2022-12-18T04:50:43;-1.60;98.70
31819;DHT22;18384;48.860;9.188;2022-12-18T04:53:09;-3.80;98.20
31819;DHT22;18384;48.860;9.188;2022-12-18T04:55:36;-1.60;98.70
31819;DHT22;18384;48.860;9.188;2022-12-18T04:58:02;-1.80;98.60
31819;DHT22;18384;48.860;9.188;2022-12-18T05:00:28;-3.90;98.10
31819;DHT22;18384;48.860;9.188;2022-12-18T05:02:54;-3.90;97.90
31819;DHT22;18384;48.860;9.188;2022-12-18T05:05:20;-3.90;98.00
31819;DHT22;18384;48.860;9.188;2022-12-18T05:07:46;-3.90;97.60
31819;DHT22;18384;48.860;9.188;2022-12-18T05:10:12;-3.90;97.60
31819;DHT22;18384;48.860;9.188;2022-12-18T05:12:38;-4.00;97.50
31819;DHT22;18384;48.860;9.188;2022-12-18T05:15:26;-4.00;97.70
31819;DHT22;18384;48.860;9.188;2022-12-18T05:17:53;-4.10;97.50
31819;DHT22;18384;48.860;9.188;2022-12-18T05:20:19;-3.30;98.00
31819;DHT22;18384;48.860;9.188;2022-12-18T05:22:45;-4.10;97.70
31819;DHT22;18384;48.860;9.188;2022-12-18T05:25:11;-4.10;98.10
31819;DHT22;18384;48.860;9.188;2022-12-18T05:27:37;-4.10;98.00
31819;DHT22;18384;48.860;9.188;2022-12-18T05:30:04;-4.10;98.00
31819;DHT22;18384;48.860;9.188;2022-12-18T05:32:31;-4.00;98.00
31819;DHT22;18384;48.860;9.188;2022-12-18T05:34:56;-4.10;97.90
31819;DHT22;18384;48.860;9.188;2022-12-18T05:37:23;-4.00;97.80
31819;DHT22;18384;48.860;9.188;2022-12-18T05:39:49;-4.00;97.80
31819;DHT22;18384;48.860;9.188;2022-12-18T05:42:15;-3.40;98.10
31819;DHT22;18384;48.860;9.188;2022-12-18T05:44:41;-4.20;97.60
31819;DHT22;18384;48.860;9.188;2022-12-18T05:47:07;-4.40;97.80
31819;DHT22;18384;48.860;9.188;2022-12-18T05:49:33;-4.40;98.00
31819;DHT22;18384;48.860;9.188;2022-12-18T05:51:59;-4.50;98.30
31819;DHT22;18384;48.860;9.188;2022-12-18T05:54:27;-4.30;98.00
31819;DHT22;18384;48.860;9.188;2022-12-18T05:56:53;-4.40;98.00
31819;DHT22;18384;48.860;9.188;2022-12-18T05:59:19;-4.40;98.10
31819;DHT22;18384;48.860;9.188;2022-12-18T06:01:46;-4.30;97.80
31819;DHT22;18384;48.860;9.188;2022-12-18T06:04:12;-4.30;97.60
31819;DHT22;18384;48.860;9.188;2022-12-18T06:06:38;-3.50;97.90
31819;DHT22;18384;48.860;9.188;2022-12-18T06:09:04;-3.90;97.80
31819;DHT22;18384;48.860;9.188;2022-12-18T06:11:38;-4.50;97.80
31819;DHT22;18384;48.860;9.188;2022-12-18T06:14:06;-4.40;97.90
31819;DHT22;18384;48.860;9.188;2022-12-18T06:16:32;-4.40;97.70
31819;DHT22;18384;48.860;9.188;2022-12-18T06:18:59;-4.50;97.50
31819;DHT22;18384;48.860;9.188;2022-12-18T06:21:27;-4.40;97.50
31819;DHT22;18384;48.860;9.188;2022-12-18T06:23:53;-4.60;97.40
31819;DHT22;18384;48.860;9.188;2022-12-18T06:26:19;-4.50;97.60
31819;DHT22;18384;48.860;9.188;2022-12-18T06:28:45;-4.50;97.40
31819;DHT22;18384;48.860;9.188;2022-12-18T06:31:11;-4.60;97.30
31819;DHT22;18384;48.860;9.188;2022-12-18T06:33:38;-4.70;97.50
31819;DHT22;18384;48.860;9.188;2022-12-18T06:36:06;-4.70;97.50
31819;DHT22;18384;48.860;9.188;2022-12-18T06:38:37;-4.90;97.50
31819;DHT22;18384;48.860;9.188;2022-12-18T06:41:22;-4.90;97.70
31819;DHT22;18384;48.860;9.188;2022-12-18T06:43:48;-4.90;97.60
31819;DHT22;18384;48.860;9.188;2022-12-18T06:46:14;-4.80;97.70
31819;DHT22;18384;48.860;9.188;2022-12-18T06:48:40;-4.90;97.80
31819;DHT22;18384;48.860;9.188;2022-12-18T06:51:07;-5.00;97.80
31819;DHT22;18384;48.860;9.188;2022-12-18T06:53:33;-5.00;98.10
31819;DHT22;18384;48.860;9.188;2022-12-18T06:56:00;-4.90;98.00
31819;DHT22;18384;48.860;9.188;2022-12-18T06:58:27;-3.20;98.20
31819;DHT22;18384;48.860;9.188;2022-12-18T07:00:58;-4.80;97.50
31819;DHT22;18384;48.860;9.188;2022-12-18T07:03:28;-4.90;97.80
31819;DHT22;18384;48.860;9.188;2022-12-18T07:05:54;-4.80;97.80
31819;DHT22;18384;48.860;9.188;2022-12-18T07:08:20;-4.70;97.70
31819;DHT22;18384;48.860;9.188;2022-12-18T07:10:46;-4.60;97.60
31819;DHT22;18384;48.860;9.188;2022-12-18T07:13:15;-4.70;97.50
31819;DHT22;18384;48.860;9.188;2022-12-18T07:15:41;-4.70;97.30
31819;DHT22;18384;48.860;9.188;2022-12-18T07:18:08;-4.80;97.70
31819;DHT22;18384;48.860;9.188;2022-12-18T07:20:34;-4.80;97.70
31819;DHT22;18384;48.860;9.188;2022-12-18T07:23:02;-4.80;97.50
31819;DHT22;18384;48.860;9.188;2022-12-18T07:25:29;-4.80;97.80
31819;DHT22;18384;48.860;9.188;2022-12-18T07:27:55;-4.80;97.60
31819;DHT22;18384;48.860;9.188;2022-12-18T07:30:21;-4.80;97.50
31819;DHT22;18384;48.860;9.188;2022-12-18T07:32:47;-4.70;97.60
31819;DHT22;18384;48.860;9.188;2022-12-18T07:35:13;-4.70;97.50
31819;DHT22;18384;48.860;9.188;2022-12-18T07:37:39;-4.70;97.60
31819;DHT22;18384;48.860;9.188;2022-12-18T07:40:06;-4.70;97.30
31819;DHT22;18384;48.860;9.188;2022-12-18T07:42:32;-4.60;97.50
31819;DHT22;18384;48.860;9.188;2022-12-18T07:44:59;-4.50;97.50
31819;DHT22;18384;48.860;9.188;2022-12-18T07:47:34;-4.60;97.30
31819;DHT22;18384;48.860;9.188;2022-12-18T07:50:02;-4.50;97.40
31819;DHT22;18384;48.860;9.188;2022-12-18T07:52:29;-4.30;97.60
31819;DHT22;18384;48.860;9.188;2022-12-18T07:54:55;-4.50;97.50
31819;DHT22;18384;48.860;9.188;2022-12-18T07:57:21;-4.40;97.60
31819;DHT22;18384;48.860;9.188;2022-12-18T07:59:47;-4.40;97.30
31819;DHT22;18384;48.860;9.188;2022-12-18T08:02:14;-4.30;97.30
31819;DHT22;18384;48.860;9.188;2022-12-18T08:04:40;-4.30;97.20
31819;DHT22;18384;48.860;9.188;2022-12-18T08:07:06;-4.30;97.30
31819;DHT22;18384;48.860;9.188;2022-12-18T08:09:32;-4.30;97.30
31819;DHT22;18384;48.860;9.188;2022-12-18T08:11:58;-4.20;97.20
31819;DHT22;18384;48.860;9.188;2022-12-18T08:14:24;-4.20;97.30
31819;DHT22;18384;48.860;9.188;2022-12-18T08:16:51;-4.20;97.30
31819;DHT22;18384;48.860;9.188;2022-12-18T08:19:17;-4.20;97.50
31819;DHT22;18384;48.860;9.188;2022-12-18T08:21:43;-4.20;97.50
31819;DHT22;18384;48.860;9.188;2022-12-18T08:24:09;-4.10;97.70
31819;DHT22;18384;48.860;9.188;2022-12-18T08:26:36;-4.10;97.80
31819;DHT22;18384;48.860;9.188;2022-12-18T08:29:02;-4.00;97.70
31819;DHT22;18384;48.860;9.188;2022-12-18T08:31:29;-4.00;97.60
31819;DHT22;18384;48.860;9.188;2022-12-18T08:33:56;-3.60;97.70
31819;DHT22;18384;48.860;9.188;2022-12-18T08:36:22;-3.80;97.60
31819;DHT22;18384;48.860;9.188;2022-12-18T08:38:49;-3.80;97.50
31819;DHT22;18384;48.860;9.188;2022-12-18T08:41:15;-3.70;97.50
31819;DHT22;18384;48.860;9.188;2022-12-18T08:43:42;-3.70;97.80
31819;DHT22;18384;48.860;9.188;2022-12-18T08:46:31;-3.70;97.80
31819;DHT22;18384;48.860;9.188;2022-12-18T08:49:01;-3.70;97.90
31819;DHT22;18384;48.860;9.188;2022-12-18T08:51:28;-3.60;98.00
31819;DHT22;18384;48.860;9.188;2022-12-18T08:53:54;-3.60;97.90
31819;DHT22;18384;48.860;9.188;2022-12-18T08:56:20;-3.00;98.40
31819;DHT22;18384;48.860;9.188;2022-12-18T08:58:46;-3.90;98.40
31819;DHT22;18384;48.860;9.188;2022-12-18T09:01:12;-2.50;98.80
31819;DHT22;18384;48.860;9.188;2022-12-18T09:03:39;-3.70;98.50
31819;DHT22;18384;48.860;9.188;2022-12-18T09:06:06;-3.20;98.50
31819;DHT22;18384;48.860;9.188;2022-12-18T09:08:32;-3.50;98.20
31819;DHT22;18384;48.860;9.188;2022-12-18T09:10:59;-3.50;98.20
31819;DHT22;18384;48.860;9.188;2022-12-18T09:13:25;-3.40;98.30
31819;DHT22;18384;48.860;9.188;2022-12-18T09:15:53;-3.30;98.20
31819;DHT22;18384;48.860;9.188;2022-12-18T09:18:22;-3.30;98.10
31819;DHT22;18384;48.860;9.188;2022-12-18T09:20:49;-3.20;98.10
31819;DHT22;18384;48.860;9.188;2022-12-18T09:23:17;-3.20;97.90
31819;DHT22;18384;48.860;9.188;2022-12-18T09:25:44;-3.20;97.80
31819;DHT22;18384;48.860;9.188;2022-12-18T09:28:12;-2.70;97.90
31819;DHT22;18384;48.860;9.188;2022-12-18T09:30:42;-3.10;97.90
31819;DHT22;18384;48.860;9.188;2022-12-18T09:33:13;-2.30;98.10
31819;DHT22;18384;48.860;9.188;2022-12-18T09:35:41;-3.10;98.00
31819;DHT22;18384;48.860;9.188;2022-12-18T09:38:13;-3.00;98.10
31819;DHT22;18384;48.860;9.188;2022-12-18T09:40:51;-2.90;98.20
31819;DHT22;18384;48.860;9.188;2022-12-18T09:44:53;-2.80;98.10
31819;DHT22;18384;48.860;9.188;2022-12-18T09:47:30;-2.70;98.10
31819;DHT22;18384;48.860;9.188;2022-12-18T09:50:06;-2.60;98.20
31819;DHT22;18384;48.860;9.188;2022-12-18T09:53:14;-2.70;98.30
31819;DHT22;18384;48.860;9.188;2022-12-18T09:55:45;-2.70;98.60
31819;DHT22;18384;48.860;9.188;2022-12-18T09:58:39;-2.70;98.80
31819;DHT22;18384;48.860;9.188;2022-12-18T10:01:21;-2.50;98.60
31819;DHT22;18384;48.860;9.188;2022-12-18T10:03:48;-0.30;98.90
31819;DHT22;18384;48.860;9.188;2022-12-18T10:06:28;-2.30;98.60
31819;DHT22;18384;48.860;9.188;2022-12-18T10:09:07;-2.30;98.70
31819;DHT22;18384;48.860;9.188;2022-12-18T10:13:53;-2.20;98.90
31819;DHT22;18384;48.860;9.188;2022-12-18T10:18:20;-2.10;98.50
31819;DHT22;18384;48.860;9.188;2022-12-18T10:25:02;-2.00;98.50
31819;DHT22;18384;48.860;9.188;2022-12-18T10:27:39;-1.90;98.50
31819;DHT22;18384;48.860;9.188;2022-12-18T10:30:14;-1.70;98.60
31819;DHT22;18384;48.860;9.188;2022-12-18T10:32:41;-1.80;98.60
31819;DHT22;18384;48.860;9.188;2022-12-18T10:35:11;-1.70;98.70
31819;DHT22;18384;48.860;9.188;2022-12-18T10:38:06;-1.70;98.80
31819;DHT22;18384;48.860;9.188;2022-12-18T10:40:56;-1.60;98.90
31819;DHT22;18384;48.860;9.188;2022-12-18T10:43:31;-1.80;98.80
31819;DHT22;18384;48.860;9.188;2022-12-18T10:46:35;-1.60;99.30
31819;DHT22;18384;48.860;9.188;2022-12-18T10:49:01;-1.60;99.50
31819;DHT22;18384;48.860;9.188;2022-12-18T10:51:28;-1.50;99.20
31819;DHT22;18384;48.860;9.188;2022-12-18T10:54:04;-1.40;99.20
31819;DHT22;18384;48.860;9.188;2022-12-18T10:56:34;-1.30;99.10
31819;DHT22;18384;48.860;9.188;2022-12-18T10:59:04;-1.30;98.90
31819;DHT22;18384;48.860;9.188;2022-12-18T11:01:55;-1.20;98.70
31819;DHT22;18384;48.860;9.188;2022-12-18T11:04:32;-1.10;98.90
31819;DHT22;18384;48.860;9.188;2022-12-18T11:07:08;-1.00;98.80
31819;DHT22;18384;48.860;9.188;2022-12-18T11:09:38;-1.00;99.00
31819;DHT22;18384;48.860;9.188;2022-12-18T11:12:19;-0.90;98.80
31819;DHT22;18384;48.860;9.188;2022-12-18T11:14:49;-0.70;98.90
31819;DHT22;18384;48.860;9.188;2022-12-18T11:17:22;-0.60;98.60
31819;DHT22;18384;48.860;9.188;2022-12-18T11:19:59;-0.60;98.40
31819;DHT22;18384;48.860;9.188;2022-12-18T11:22:33;-0.50;98.30
31819;DHT22;18384;48.860;9.188;2022-12-18T11:25:06;-0.40;98.20
31819;DHT22;18384;48.860;9.188;2022-12-18T11:27:52;-0.40;98.30
31819;DHT22;18384;48.860;9.188;2022-12-18T11:30:27;-0.30;98.50
31819;DHT22;18384;48.860;9.188;2022-12-18T11:33:13;-0.20;98.20
31819;DHT22;18384;48.860;9.188;2022-12-18T11:35:55;-0.20;98.40
31819;DHT22;18384;48.860;9.188;2022-12-18T11:38:26;-0.20;98.40
31819;DHT22;18384;48.860;9.188;2022-12-18T11:42:41;-0.10;97.90
31819;DHT22;18384;48.860;9.188;2022-12-18T11:45:48;0.00;98.20
31819;DHT22;18384;48.860;9.188;2022-12-18T11:48:28;-0.10;98.20
31819;DHT22;18384;48.860;9.188;2022-12-18T11:51:00;-0.10;97.90
31819;DHT22;18384;48.860;9.188;2022-12-18T11:53:29;-0.10;98.10
31819;DHT22;18384;48.860;9.188;2022-12-18T11:56:19;0.00;98.30
31819;DHT22;18384;48.860;9.188;2022-12-18T12:00:23;0.00;98.20
31819;DHT22;18384;48.860;9.188;2022-12-18T12:18:53;0.20;98.30
31819;DHT22;18384;48.860;9.188;2022-12-18T12:21:42;0.20;98.20
31819;DHT22;18384;48.860;9.188;2022-12-18T12:25:33;0.20;98.30
31819;DHT22;18384;48.860;9.188;2022-12-18T12:39:07;0.40;98.30
31819;DHT22;18384;48.860;9.188;2022-12-18T12:41:41;0.50;97.90
31819;DHT22;18384;48.860;9.188;2022-12-18T12:44:29;0.50;98.10
31819;DHT22;18384;48.860;9.188;2022-12-18T12:47:01;0.50;98.00
31819;DHT22;18384;48.860;9.188;2022-12-18T12:49:40;0.60;98.20
31819;DHT22;18384;48.860;9.188;2022-12-18T12:52:10;0.60;98.10
31819;DHT22;18384;48.860;9.188;2022-12-18T12:54:40;0.60;98.00
31819;DHT22;18384;48.860;9.188;2022-12-18T12:58:00;0.70;97.90
31819;DHT22;18384;48.860;9.188;2022-12-18T13:00:41;0.70;97.60
31819;DHT22;18384;48.860;9.188;2022-12-18T13:04:52;0.70;97.90
31819;DHT22;18384;48.860;9.188;2022-12-18T13:07:29;0.70;98.00
31819;DHT22;18384;48.860;9.188;2022-12-18T13:11:53;0.70;98.10
31819;DHT22;18384;48.860;9.188;2022-12-18T13:14:40;0.80;98.00
31819;DHT22;18384;48.860;9.188;2022-12-18T13:17:28;0.70;97.60
31819;DHT22;18384;48.860;9.188;2022-12-18T13:20:10;0.60;97.80
31819;DHT22;18384;48.860;9.188;2022-12-18T13:22:47;0.70;97.90
31819;DHT22;18384;48.860;9.188;2022-12-18T13:25:35;0.80;97.70
31819;DHT22;18384;48.860;9.188;2022-12-18T13:28:14;0.80;97.90
31819;DHT22;18384;48.860;9.188;2022-12-18T13:30:55;0.90;97.80
31819;DHT22;18384;48.860;9.188;2022-12-18T13:33:44;0.90;97.90
31819;DHT22;18384;48.860;9.188;2022-12-18T13:36:30;1.00;98.00
31819;DHT22;18384;48.860;9.188;2022-12-18T13:39:22;1.00;98.00
31819;DHT22;18384;48.860;9.188;2022-12-18T13:42:36;1.00;97.40
31819;DHT22;18384;48.860;9.188;2022-12-18T13:45:43;1.00;97.00
31819;DHT22;18384;48.860;9.188;2022-12-18T13:48:20;1.00;97.30
31819;DHT22;18384;48.860;9.188;2022-12-18T13:51:03;1.00;97.20
31819;DHT22;18384;48.860;9.188;2022-12-18T13:53:57;1.00;97.60
31819;DHT22;18384;48.860;9.188;2022-12-18T13:56:31;1.00;97.70
31819;DHT22;18384;48.860;9.188;2022-12-18T14:02:25;1.00;97.80
31819;DHT22;18384;48.860;9.188;2022-12-18T14:04:53;1.00;97.80
31819;DHT22;18384;48.860;9.188;2022-12-18T14:07:25;1.00;97.70
31819;DHT22;18384;48.860;9.188;2022-12-18T14:09:57;0.90;97.50
31819;DHT22;18384;48.860;9.188;2022-12-18T14:12:34;1.00;97.50
31819;DHT22;18384;48.860;9.188;2022-12-18T14:16:03;0.90;97.50
31819;DHT22;18384;48.860;9.188;2022-12-18T14:18:43;0.90;97.70
31819;DHT22;18384;48.860;9.188;2022-12-18T14:21:27;0.90;97.80
31819;DHT22;18384;48.860;9.188;2022-12-18T14:27:26;0.80;97.90
31819;DHT22;18384;48.860;9.188;2022-12-18T14:29:52;0.80;98.00
31819;DHT22;18384;48.860;9.188;2022-12-18T14:32:19;0.80;98.00
31819;DHT22;18384;48.860;9.188;2022-12-18T14:34:53;0.70;98.10
31819;DHT22;18384;48.860;9.188;2022-12-18T14:37:27;0.70;98.30
31819;DHT22;18384;48.860;9.188;2022-12-18T14:40:01;0.60;98.20
31819;DHT22;18384;48.860;9.188;2022-12-18T14:42:29;0.60;98.20
31819;DHT22;18384;48.860;9.188;2022-12-18T14:48:00;0.50;98.20
31819;DHT22;18384;48.860;9.188;2022-12-18T14:50:26;0.50;98.30
31819;DHT22;18384;48.860;9.188;2022-12-18T14:52:52;0.50;98.40
31819;DHT22;18384;48.860;9.188;2022-12-18T14:55:19;0.40;98.50
31819;DHT22;18384;48.860;9.188;2022-12-18T14:57:50;0.40;98.50
31819;DHT22;18384;48.860;9.188;2022-12-18T15:00:21;0.40;98.70
31819;DHT22;18384;48.860;9.188;2022-12-18T15:02:53;0.40;98.80
31819;DHT22;18384;48.860;9.188;2022-12-18T15:05:29;0.30;98.70
31819;DHT22;18384;48.860;9.188;2022-12-18T15:07:58;0.30;98.80
31819;DHT22;18384;48.860;9.188;2022-12-18T15:10:30;0.30;98.80
31819;DHT22;18384;48.860;9.188;2022-12-18T15:13:09;0.20;98.90
31819;DHT22;18384;48.860;9.188;2022-12-18T15:15:44;0.20;99.00
31819;DHT22;18384;48.860;9.188;2022-12-18T15:18:16;0.20;99.10
31819;DHT22;18384;48.860;9.188;2022-12-18T15:20:53;0.10;99.10
31819;DHT22;18384;48.860;9.188;2022-12-18T15:23:47;0.10;99.10
31819;DHT22;18384;48.860;9.188;2022-12-18T15:26:19;0.10;99.10
31819;DHT22;18384;48.860;9.188;2022-12-18T15:28:56;0.10;99.20
31819;DHT22;18384;48.860;9.188;2022-12-18T15:31:32;0.00;99.20
31819;DHT22;18384;48.860;9.188;2022-12-18T15:34:22;0.00;99.30
31819;DHT22;18384;48.860;9.188;2022-12-18T15:36:51;0.00;99.40
31819;DHT22;18384;48.860;9.188;2022-12-18T15:39:17;-0.10;99.40
31819;DHT22;18384;48.860;9.188;2022-12-18T15:41:43;-0.10;99.50
31819;DHT22;18384;48.860;9.188;2022-12-18T15:46:03;-0.10;99.60
31819;DHT22;18384;48.860;9.188;2022-12-18T15:48:33;-0.20;99.70
31819;DHT22;18384;48.860;9.188;2022-12-18T15:51:01;-0.20;99.70
31819;DHT22;18384;48.860;9.188;2022-12-18T15:53:33;-0.20;99.70
31819;DHT22;18384;48.860;9.188;2022-12-18T15:55:59;-0.20;99.90
31819;DHT22;18384;48.860;9.188;2022-12-18T15:58:44;-0.20;99.90
31819;DHT22;18384;48.860;9.188;2022-12-18T16:01:11;-0.30;99.90
31819;DHT22;18384;48.860;9.188;2022-12-18T16:03:37;-0.30;99.90
31819;DHT22;18384;48.860;9.188;2022-12-18T16:06:03;-0.30;99.90
31819;DHT22;18384;48.860;9.188;2022-12-18T16:08:30;-0.30;99.90
31819;DHT22;18384;48.860;9.188;2022-12-18T16:10:57;-0.40;99.90
31819;DHT22;18384;48.860;9.188;2022-12-18T16:13:23;-0.30;99.90
31819;DHT22;18384;48.860;9.188;2022-12-18T16:15:49;-0.40;99.90
31819;DHT22;18384;48.860;9.188;2022-12-18T16:18:15;-0.30;99.90
31819;DHT22;18384;48.860;9.188;2022-12-18T16:20:42;-0.40;99.90
31819;DHT22;18384;48.860;9.188;2022-12-18T16:23:08;-0.40;99.90
31819;DHT22;18384;48.860;9.188;2022-12-18T16:25:34;-0.40;99.90
31819;DHT22;18384;48.860;9.188;2022-12-18T16:28:00;-0.40;99.90
31819;DHT22;18384;48.860;9.188;2022-12-18T16:30:29;-0.40;99.90
31819;DHT22;18384;48.860;9.188;2022-12-18T16:32:57;-0.40;99.90
31819;DHT22;18384;48.860;9.188;2022-12-18T16:35:23;-0.40;99.90
31819;DHT22;18384;48.860;9.188;2022-12-18T16:37:51;-0.40;99.90
31819;DHT22;18384;48.860;9.188;2022-12-18T16:40:17;-0.40;99.90
31819;DHT22;18384;48.860;9.188;2022-12-18T16:42:45;-0.40;99.90
31819;DHT22;18384;48.860;9.188;2022-12-18T16:45:15;-0.40;99.90
31819;DHT22;18384;48.860;9.188;2022-12-18T16:47:42;-0.40;99.90
31819;DHT22;18384;48.860;9.188;2022-12-18T16:50:09;-0.30;99.90
31819;DHT22;18384;48.860;9.188;2022-12-18T16:52:35;-0.30;99.90
31819;DHT22;18384;48.860;9.188;2022-12-18T16:55:01;-0.40;99.90
31819;DHT22;18384;48.860;9.188;2022-12-18T16:57:28;-0.30;99.90
31819;DHT22;18384;48.860;9.188;2022-12-18T16:59:54;-0.30;99.90
31819;DHT22;18384;48.860;9.188;2022-12-18T17:02:23;-0.40;99.90
31819;DHT22;18384;48.860;9.188;2022-12-18T17:04:53;-0.30;99.90
31819;DHT22;18384;48.860;9.188;2022-12-18T17:07:22;-0.30;99.90
31819;DHT22;18384;48.860;9.188;2022-12-18T17:09:48;-0.30;99.90
31819;DHT22;18384;48.860;9.188;2022-12-18T17:12:16;-0.20;99.90
31819;DHT22;18384;48.860;9.188;2022-12-18T17:14:42;-0.30;99.90
31819;DHT22;18384;48.860;9.188;2022-12-18T17:17:08;-0.20;99.90
31819;DHT22;18384;48.860;9.188;2022-12-18T17:19:34;-0.20;99.90